Time;durP1;ratioP1;P1;durP2;ratioP2;P2;SDS_P1;SDS_P2;PMS_P1;PMS_P2;Temp;Humidity;BMP_temperature;BMP_pressure;BME280_temperature;BME280_humidity;BME280_pressure;Samples;Min_cycle;Max_cycle;Signal;HPM_P1;HPM_P2
2021/11/21 00:00:25;;;;;;;13.23;8.10;;;;;;;;;;4994959;28;20148;-76
2021/11/21 00:02:53;;;;;;;12.80;7.90;;;;;;;;;;5013765;28;20061;-76
2021/11/21 00:05:20;;;;;;;11.45;7.57;;;;;;;;;;4996111;28;20130;-71
2021/11/21 00:07:48;;;;;;;11.77;8.38;;;;;;;;;;5012854;28;20041;-76
2021/11/21 00:10:16;;;;;;;12.10;7.72;;;;;;;;;;5013067;28;20042;-77
2021/11/21 00:12:45;;;;;;;11.75;7.93;;;;;;;;;;5012332;28;20493;-75
2021/11/21 00:15:12;;;;;;;15.43;8.45;;;;;;;;;;4995003;28;20076;-75
2021/11/21 00:17:41;;;;;;;12.70;7.60;;;;;;;;;;5012978;28;20058;-71
2021/11/21 00:20:16;;;;;;;11.32;8.40;;;;;;;;;;4995377;28;20042;-74
2021/11/21 00:22:44;;;;;;;13.85;7.82;;;;;;;;;;5009792;28;20799;-75
2021/11/21 00:25:12;;;;;;;12.32;7.82;;;;;;;;;;5006691;28;20041;-77
2021/11/21 00:27:40;;;;;;;12.07;7.40;;;;;;;;;;5014469;28;20443;-72
2021/11/21 00:30:07;;;;;;;13.48;7.55;;;;;;;;;;5015121;28;20516;-72
2021/11/21 00:32:35;;;;;;;13.27;7.88;;;;;;;;;;5014765;28;20041;-71
2021/11/21 00:35:02;;;;;;;11.15;7.25;;;;;;;;;;5032113;28;20046;-71
2021/11/21 00:37:30;;;;;;;11.88;7.68;;;;;;;;;;5032072;28;20049;-74
2021/11/21 00:39:58;;;;;;;12.32;7.18;;;;;;;;;;5032082;28;20511;-72
2021/11/21 00:42:26;;;;;;;13.95;8.00;;;;;;;;;;5031409;28;20108;-77
2021/11/21 00:44:53;;;;;;;12.82;7.80;;;;;;;;;;4999731;28;20092;-72
2021/11/21 00:47:21;;;;;;;9.15;6.65;;;;;;;;;;5014813;28;20046;-71
2021/11/21 00:49:49;;;;;;;10.35;7.15;;;;;;;;;;5014783;28;20048;-73
2021/11/21 00:52:16;;;;;;;10.68;6.63;;;;;;;;;;5014844;28;20048;-73
2021/11/21 00:57:11;;;;;;;13.73;7.65;;;;;;;;;;5014408;28;20132;-71
2021/11/21 00:59:39;;;;;;;12.52;7.43;;;;;;;;;;5014788;28;20038;-72
2021/11/21 01:02:11;;;;;;;19.90;8.02;;;;;;;;;;4997531;28;20068;-76
2021/11/21 01:04:43;;;;;;;17.70;8.20;;;;;;;;;;5014551;28;20045;-72
2021/11/21 01:07:11;;;;;;;14.27;7.78;;;;;;;;;;4996681;28;20045;-73
2021/11/21 01:09:40;;;;;;;11.20;7.90;;;;;;;;;;5014444;28;20041;-76
2021/11/21 01:12:08;;;;;;;12.95;8.27;;;;;;;;;;4996265;28;20045;-73
2021/11/21 01:14:37;;;;;;;16.40;8.40;;;;;;;;;;5014561;28;20046;-70
2021/11/21 01:17:05;;;;;;;12.63;7.85;;;;;;;;;;4997087;28;20050;-73
2021/11/21 01:19:33;;;;;;;10.02;7.22;;;;;;;;;;5014592;28;20050;-76
2021/11/21 01:22:01;;;;;;;13.10;7.78;;;;;;;;;;5014570;28;20050;-76
2021/11/21 01:24:29;;;;;;;11.45;7.93;;;;;;;;;;5014610;28;20046;-72
2021/11/21 01:26:57;;;;;;;10.90;7.90;;;;;;;;;;5014052;28;20117;-75
2021/11/21 01:29:24;;;;;;;11.70;8.40;;;;;;;;;;4997140;28;20037;-70
2021/11/21 01:31:52;;;;;;;13.40;8.55;;;;;;;;;;4996685;28;20038;-72
2021/11/21 01:34:19;;;;;;;11.35;8.38;;;;;;;;;;4996309;28;20092;-76
2021/11/21 01:36:47;;;;;;;15.70;8.10;;;;;;;;;;4996444;28;20060;-70
2021/11/21 01:39:15;;;;;;;13.95;7.93;;;;;;;;;;5014300;28;20093;-76
2021/11/21 01:41:43;;;;;;;11.55;7.60;;;;;;;;;;5013850;28;20042;-72
2021/11/21 01:44:12;;;;;;;11.35;7.97;;;;;;;;;;5014242;28;20454;-72
2021/11/21 01:46:41;;;;;;;14.55;8.73;;;;;;;;;;5013950;28;20034;-72
2021/11/21 01:49:09;;;;;;;15.02;8.85;;;;;;;;;;5014015;28;20125;-73
2021/11/21 01:51:37;;;;;;;16.25;8.38;;;;;;;;;;5013916;28;20045;-72
2021/11/21 01:54:06;;;;;;;12.35;7.93;;;;;;;;;;4996153;28;20061;-72
2021/11/21 01:56:33;;;;;;;13.00;7.82;;;;;;;;;;5013515;28;20045;-73
2021/11/21 01:59:02;;;;;;;15.85;7.97;;;;;;;;;;4996342;28;20124;-72
2021/11/21 02:01:29;;;;;;;11.63;7.63;;;;;;;;;;5013398;28;20045;-72
2021/11/21 02:03:57;;;;;;;11.88;8.10;;;;;;;;;;5014165;28;20049;-70
2021/11/21 02:06:28;;;;;;;14.23;8.05;;;;;;;;;;4995757;28;20551;-72
2021/11/21 02:08:56;;;;;;;13.20;8.35;;;;;;;;;;5012968;28;20507;-76
2021/11/21 02:11:25;;;;;;;12.88;7.85;;;;;;;;;;5013567;28;20042;-72
2021/11/21 02:13:53;;;;;;;13.63;7.50;;;;;;;;;;5013595;28;20053;-72
2021/11/21 02:16:22;;;;;;;11.23;7.65;;;;;;;;;;4995626;28;20401;-70
2021/11/21 02:18:50;;;;;;;13.27;7.40;;;;;;;;;;5013422;28;20045;-70
2021/11/21 02:21:18;;;;;;;16.98;7.72;;;;;;;;;;5013295;28;20125;-72
2021/11/21 02:23:47;;;;;;;14.73;8.43;;;;;;;;;;5013219;28;20046;-76
2021/11/21 02:26:17;;;;;;;11.13;8.30;;;;;;;;;;5013397;28;20077;-76
2021/11/21 02:28:46;;;;;;;13.93;7.90;;;;;;;;;;4995643;28;20042;-72
2021/11/21 02:31:14;;;;;;;13.90;8.00;;;;;;;;;;5013396;28;20034;-72
2021/11/21 02:33:46;;;;;;;11.03;8.00;;;;;;;;;;5013356;28;20053;-73
2021/11/21 02:36:13;;;;;;;11.77;8.23;;;;;;;;;;5013254;28;20284;-72
2021/11/21 02:38:41;;;;;;;9.55;7.07;;;;;;;;;;5012916;28;20085;-72
2021/11/21 02:41:09;;;;;;;15.10;8.13;;;;;;;;;;5006529;28;20537;-76
2021/11/21 02:43:38;;;;;;;14.15;8.23;;;;;;;;;;4999326;28;20103;-70
2021/11/21 02:46:05;;;;;;;14.10;8.25;;;;;;;;;;4992360;28;20137;-76
2021/11/21 02:48:34;;;;;;;14.05;7.95;;;;;;;;;;4995632;28;20038;-70
2021/11/21 02:51:03;;;;;;;13.77;7.72;;;;;;;;;;4995199;28;20037;-70
2021/11/21 02:53:33;;;;;;;13.27;7.45;;;;;;;;;;4995045;28;20042;-72
2021/11/21 02:56:02;;;;;;;12.15;7.43;;;;;;;;;;5013014;28;20112;-72
2021/11/21 02:58:32;;;;;;;11.00;7.32;;;;;;;;;;5013338;28;20045;-76
2021/11/21 03:01:09;;;;;;;12.70;8.05;;;;;;;;;;5013131;28;20038;-72
2021/11/21 03:03:37;;;;;;;10.43;6.95;;;;;;;;;;5013148;28;20042;-70
2021/11/21 03:06:05;;;;;;;10.70;7.15;;;;;;;;;;5013370;28;20553;-70
2021/11/21 03:08:34;;;;;;;9.55;6.70;;;;;;;;;;4978408;28;20052;-72
2021/11/21 03:11:27;;;;;;;13.88;7.65;;;;;;;;;;5012756;28;20519;-76
2021/11/21 03:13:57;;;;;;;9.93;6.82;;;;;;;;;;4995192;28;20077;-76
2021/11/21 03:16:25;;;;;;;10.07;6.47;;;;;;;;;;5012740;28;20201;-72
2021/11/21 03:18:53;;;;;;;9.00;6.53;;;;;;;;;;5012914;28;20092;-72
2021/11/21 03:21:20;;;;;;;9.60;6.60;;;;;;;;;;5012490;28;20046;-70
2021/11/21 03:23:48;;;;;;;10.55;6.72;;;;;;;;;;5013242;28;20034;-73
2021/11/21 03:26:16;;;;;;;8.63;6.60;;;;;;;;;;5012787;28;20553;-70
2021/11/21 03:28:43;;;;;;;10.20;5.93;;;;;;;;;;4980012;28;20038;-76
2021/11/21 03:31:13;;;;;;;12.45;6.43;;;;;;;;;;5016676;28;20126;-72
2021/11/21 03:33:41;;;;;;;10.88;6.30;;;;;;;;;;4999014;28;20397;-72
2021/11/21 03:36:08;;;;;;;8.88;5.28;;;;;;;;;;5015895;28;20044;-72
2021/11/21 03:38:36;;;;;;;8.52;5.75;;;;;;;;;;5016388;28;20057;-76
2021/11/21 03:41:04;;;;;;;8.05;5.95;;;;;;;;;;5016446;28;20485;-72
2021/11/21 03:43:31;;;;;;;9.15;5.65;;;;;;;;;;5016229;28;20042;-72
2021/11/21 03:45:59;;;;;;;8.20;5.10;;;;;;;;;;5016155;28;20038;-71
2021/11/21 03:48:27;;;;;;;8.35;5.40;;;;;;;;;;5016313;28;20483;-70
2021/11/21 03:50:54;;;;;;;8.60;5.20;;;;;;;;;;5015547;28;20050;-73
2021/11/21 03:53:21;;;;;;;7.95;5.40;;;;;;;;;;4998306;28;20049;-70
2021/11/21 03:55:49;;;;;;;6.90;5.40;;;;;;;;;;5016165;28;20053;-72
2021/11/21 03:58:17;;;;;;;8.50;5.10;;;;;;;;;;5016225;28;20122;-72
2021/11/21 04:00:47;;;;;;;7.05;5.05;;;;;;;;;;5016448;28;20092;-72
2021/11/21 04:03:17;;;;;;;7.72;5.18;;;;;;;;;;5016143;28;20125;-73
2021/11/21 04:05:45;;;;;;;8.13;5.43;;;;;;;;;;4998080;28;20100;-72
2021/11/21 04:08:13;;;;;;;9.05;5.35;;;;;;;;;;4998141;28;20042;-76
2021/11/21 04:10:40;;;;;;;8.50;5.00;;;;;;;;;;4998405;28;20497;-72
2021/11/21 04:13:09;;;;;;;8.43;5.03;;;;;;;;;;4997932;28;20524;-73
2021/11/21 04:15:37;;;;;;;7.45;5.18;;;;;;;;;;4997987;28;20398;-72
2021/11/21 04:18:05;;;;;;;7.50;5.20;;;;;;;;;;5015532;28;20374;-73
2021/11/21 04:20:32;;;;;;;8.10;5.30;;;;;;;;;;4998025;28;20058;-76
2021/11/21 04:23:01;;;;;;;7.75;5.50;;;;;;;;;;5015828;28;20455;-72
2021/11/21 04:25:28;;;;;;;7.40;5.30;;;;;;;;;;5015696;28;20041;-72
2021/11/21 04:27:56;;;;;;;7.75;5.13;;;;;;;;;;4997616;28;20046;-72
2021/11/21 04:30:24;;;;;;;7.80;5.07;;;;;;;;;;4998018;28;20042;-72
2021/11/21 04:32:51;;;;;;;8.27;5.65;;;;;;;;;;5015497;28;20038;-71
2021/11/21 04:35:20;;;;;;;8.55;5.40;;;;;;;;;;4996879;28;20050;-73
2021/11/21 04:37:48;;;;;;;8.50;4.90;;;;;;;;;;5015676;28;20045;-76
2021/11/21 04:40:16;;;;;;;8.35;4.90;;;;;;;;;;5015259;28;20536;-72
2021/11/21 04:42:44;;;;;;;6.57;4.90;;;;;;;;;;4997854;28;20046;-70
2021/11/21 04:45:13;;;;;;;7.88;5.28;;;;;;;;;;5015443;28;20128;-70
2021/11/21 04:47:41;;;;;;;8.15;5.03;;;;;;;;;;5015135;28;20342;-76
2021/11/21 04:50:10;;;;;;;5.57;4.43;;;;;;;;;;4980812;28;20045;-70
2021/11/21 04:52:38;;;;;;;7.60;5.32;;;;;;;;;;5015099;28;20117;-70
2021/11/21 04:55:06;;;;;;;6.25;4.78;;;;;;;;;;5014714;28;20042;-70
2021/11/21 04:57:33;;;;;;;8.15;4.68;;;;;;;;;;4997490;28;20046;-76
2021/11/21 05:00:08;;;;;;;6.75;4.97;;;;;;;;;;4997411;28;20050;-72
2021/11/21 05:02:40;;;;;;;6.45;5.03;;;;;;;;;;4997135;28;20045;-72
2021/11/21 05:05:08;;;;;;;6.47;4.68;;;;;;;;;;4997119;28;20042;-72
2021/11/21 05:07:36;;;;;;;8.00;5.03;;;;;;;;;;5014580;28;20046;-72
2021/11/21 05:10:05;;;;;;;8.15;5.30;;;;;;;;;;5014578;28;20042;-76
2021/11/21 05:12:33;;;;;;;9.23;5.50;;;;;;;;;;5014730;28;20057;-72
2021/11/21 05:15:01;;;;;;;9.10;5.72;;;;;;;;;;5014518;28;20050;-72
2021/11/21 05:17:29;;;;;;;7.43;5.45;;;;;;;;;;5013977;28;20049;-72
2021/11/21 05:19:59;;;;;;;8.48;5.28;;;;;;;;;;5014903;28;20046;-72
2021/11/21 05:22:28;;;;;;;8.68;5.30;;;;;;;;;;5014410;28;20498;-76
2021/11/21 05:24:55;;;;;;;6.95;5.00;;;;;;;;;;4997296;28;20410;-72
2021/11/21 05:27:26;;;;;;;8.27;5.57;;;;;;;;;;5014014;28;20042;-70
2021/11/21 05:29:53;;;;;;;9.57;5.82;;;;;;;;;;5013879;28;20038;-70
2021/11/21 05:32:21;;;;;;;12.50;5.95;;;;;;;;;;5014155;28;20423;-76
2021/11/21 05:34:51;;;;;;;8.07;5.32;;;;;;;;;;5014282;28;20128;-72
2021/11/21 05:37:21;;;;;;;9.67;5.33;;;;;;;;;;4997346;28;20543;-76
2021/11/21 05:39:48;;;;;;;11.63;5.97;;;;;;;;;;5014241;28;20046;-72
2021/11/21 05:42:16;;;;;;;7.60;5.85;;;;;;;;;;5014362;28;20116;-72
2021/11/21 05:44:43;;;;;;;9.23;6.03;;;;;;;;;;5013846;28;20048;-76
2021/11/21 05:47:11;;;;;;;9.63;6.32;;;;;;;;;;4995714;28;20417;-73
2021/11/21 05:49:38;;;;;;;10.25;6.32;;;;;;;;;;5013649;28;20053;-76
2021/11/21 05:52:06;;;;;;;10.23;6.20;;;;;;;;;;4995304;28;20132;-76
2021/11/21 05:54:34;;;;;;;10.48;6.70;;;;;;;;;;5013747;28;20504;-70
2021/11/21 05:57:01;;;;;;;13.15;6.68;;;;;;;;;;4980241;28;20487;-71
2021/11/21 05:59:29;;;;;;;9.32;6.68;;;;;;;;;;4996594;28;20133;-70
2021/11/21 06:01:56;;;;;;;11.00;6.47;;;;;;;;;;5013151;28;20503;-73
2021/11/21 06:04:24;;;;;;;9.82;6.55;;;;;;;;;;5013739;28;20038;-75
2021/11/21 06:06:52;;;;;;;10.85;6.60;;;;;;;;;;5013607;28;20038;-70
2021/11/21 06:09:19;;;;;;;9.93;6.28;;;;;;;;;;5013381;28;20064;-72
2021/11/21 06:11:48;;;;;;;11.07;6.32;;;;;;;;;;5013669;28;20038;-72
2021/11/21 06:14:15;;;;;;;8.65;6.07;;;;;;;;;;4995773;28;20055;-73
2021/11/21 06:16:43;;;;;;;8.43;5.97;;;;;;;;;;5013361;28;20048;-72
2021/11/21 06:19:11;;;;;;;8.10;5.35;;;;;;;;;;4996381;28;20504;-72
2021/11/21 06:21:39;;;;;;;10.23;5.70;;;;;;;;;;5013356;28;20054;-72
2021/11/21 06:24:07;;;;;;;8.48;6.00;;;;;;;;;;5015243;28;20076;-72
2021/11/21 06:26:35;;;;;;;8.60;5.55;;;;;;;;;;5013108;28;20514;-71
2021/11/21 06:29:02;;;;;;;7.63;5.50;;;;;;;;;;5014765;28;20092;-75
2021/11/21 06:31:30;;;;;;;10.48;6.10;;;;;;;;;;5012872;28;20048;-74
2021/11/21 06:33:58;;;;;;;12.63;6.20;;;;;;;;;;4994820;28;20069;-72
2021/11/21 06:36:25;;;;;;;11.68;6.80;;;;;;;;;;4995964;28;20034;-74
2021/11/21 06:38:53;;;;;;;10.35;6.50;;;;;;;;;;5015520;28;20045;-83
2021/11/21 06:41:20;;;;;;;8.38;5.72;;;;;;;;;;5016553;28;20048;-75
2021/11/21 06:43:48;;;;;;;9.52;5.57;;;;;;;;;;4995770;28;20205;-74
2021/11/21 06:46:16;;;;;;;6.35;5.43;;;;;;;;;;5014423;28;20042;-71
2021/11/21 06:48:44;;;;;;;10.35;5.80;;;;;;;;;;5014872;28;20038;-82
2021/11/21 06:51:13;;;;;;;8.00;5.30;;;;;;;;;;5018507;28;20049;-83
2021/11/21 06:53:43;;;;;;;10.25;5.30;;;;;;;;;;5014387;28;20069;-75
2021/11/21 06:56:10;;;;;;;10.27;5.32;;;;;;;;;;5017812;28;20049;-75
2021/11/21 06:58:38;;;;;;;7.07;5.60;;;;;;;;;;4998812;28;20054;-83
2021/11/21 07:01:07;;;;;;;8.45;5.25;;;;;;;;;;5013779;28;20056;-75
2021/11/21 07:03:35;;;;;;;6.20;4.88;;;;;;;;;;5016128;28;20042;-75
2021/11/21 07:06:02;;;;;;;8.75;4.80;;;;;;;;;;5003578;28;20164;-75
2021/11/21 07:08:30;;;;;;;7.93;4.88;;;;;;;;;;5016774;28;20406;-72
2021/11/21 07:10:57;;;;;;;4.80;4.30;;;;;;;;;;4999486;28;20502;-83
2021/11/21 07:13:25;;;;;;;6.22;4.47;;;;;;;;;;5002411;28;20134;-72
2021/11/21 07:15:52;;;;;;;8.48;4.63;;;;;;;;;;4999994;28;20041;-75
2021/11/21 07:18:20;;;;;;;6.05;4.03;;;;;;;;;;5019299;28;20125;-83
2021/11/21 07:20:47;;;;;;;7.38;4.40;;;;;;;;;;5018731;28;20053;-73
2021/11/21 07:23:19;;;;;;;5.80;3.85;;;;;;;;;;4999371;28;20141;-75
2021/11/21 07:25:48;;;;;;;4.30;3.70;;;;;;;;;;5016383;28;20053;-73
2021/11/21 07:28:17;;;;;;;4.95;3.88;;;;;;;;;;5016345;28;20034;-72
2021/11/21 07:30:44;;;;;;;3.92;3.53;;;;;;;;;;4982680;28;20073;-75
2021/11/21 07:33:12;;;;;;;4.63;3.90;;;;;;;;;;5022491;28;20191;-75
2021/11/21 07:35:40;;;;;;;4.28;3.15;;;;;;;;;;5022103;28;20104;-83
2021/11/21 07:38:08;;;;;;;5.60;3.40;;;;;;;;;;5016594;28;20050;-74
2021/11/21 07:40:35;;;;;;;5.88;3.28;;;;;;;;;;5016441;28;20054;-76
2021/11/21 07:43:03;;;;;;;4.43;3.60;;;;;;;;;;5024654;28;20057;-83
2021/11/21 07:45:34;;;;;;;3.83;3.35;;;;;;;;;;5011191;28;20041;-72
2021/11/21 07:48:02;;;;;;;5.22;4.15;;;;;;;;;;5021442;28;20129;-75
2021/11/21 07:50:29;;;;;;;4.22;3.63;;;;;;;;;;5019200;28;20067;-83
2021/11/21 07:52:57;;;;;;;5.60;4.53;;;;;;;;;;5000511;28;20049;-74
2021/11/21 07:55:24;;;;;;;4.78;3.90;;;;;;;;;;4998232;28;20046;-80
2021/11/21 07:57:52;;;;;;;4.25;3.85;;;;;;;;;;4998245;28;20398;-74
2021/11/21 08:00:20;;;;;;;7.40;4.00;;;;;;;;;;4998442;28;20054;-74
2021/11/21 08:02:47;;;;;;;7.82;4.30;;;;;;;;;;5016210;28;20045;-75
2021/11/21 08:05:15;;;;;;;8.07;6.00;;;;;;;;;;5020822;28;20121;-74
2021/11/21 08:07:44;;;;;;;6.28;5.55;;;;;;;;;;5018361;28;20042;-75
2021/11/21 08:10:13;;;;;;;7.43;5.93;;;;;;;;;;5018927;28;20112;-76
2021/11/21 08:12:40;;;;;;;7.75;4.97;;;;;;;;;;5102467;23;20033;-79
2021/11/21 08:15:08;;;;;;;5.97;4.10;;;;;;;;;;5015285;28;20052;-74
2021/11/21 08:17:36;;;;;;;4.72;3.60;;;;;;;;;;5015778;28;20537;-73
2021/11/21 08:20:04;;;;;;;7.55;5.72;;;;;;;;;;5016872;28;20054;-82
2021/11/21 08:22:31;;;;;;;10.07;6.78;;;;;;;;;;5022340;28;20077;-83
2021/11/21 08:24:59;;;;;;;10.30;6.53;;;;;;;;;;5023224;28;20504;-81
2021/11/21 08:27:28;;;;;;;5.03;4.43;;;;;;;;;;5024566;28;20041;-72
2021/11/21 08:29:56;;;;;;;5.15;4.53;;;;;;;;;;4998471;28;20034;-82
2021/11/21 08:32:23;;;;;;;9.98;3.88;;;;;;;;;;5009221;28;20041;-82
2021/11/21 08:34:51;;;;;;;8.10;4.38;;;;;;;;;;4990214;28;20053;-76
2021/11/21 08:37:18;;;;;;;6.30;3.60;;;;;;;;;;4995401;28;20058;-74
2021/11/21 08:39:46;;;;;;;5.38;3.72;;;;;;;;;;4996122;28;20536;-79
2021/11/21 08:42:13;;;;;;;5.55;4.22;;;;;;;;;;4994575;28;20101;-72
2021/11/21 08:44:41;;;;;;;5.18;4.18;;;;;;;;;;4995798;28;20056;-74
2021/11/21 08:47:10;;;;;;;7.88;4.00;;;;;;;;;;4996957;28;20042;-75
2021/11/21 08:49:39;;;;;;;8.05;4.63;;;;;;;;;;4994820;28;20043;-76
2021/11/21 08:52:06;;;;;;;7.32;4.70;;;;;;;;;;4993697;28;20042;-72
2021/11/21 08:54:34;;;;;;;6.97;4.60;;;;;;;;;;4994515;28;20038;-82
2021/11/21 08:57:02;;;;;;;6.60;4.43;;;;;;;;;;4994800;28;20622;-72
2021/11/21 08:59:30;;;;;;;4.88;4.00;;;;;;;;;;4977455;28;20046;-72
2021/11/21 09:01:57;;;;;;;6.88;5.10;;;;;;;;;;4995579;28;20052;-72
2021/11/21 09:04:26;;;;;;;7.57;5.72;;;;;;;;;;4994214;28;20469;-76
2021/11/21 09:06:53;;;;;;;7.00;5.18;;;;;;;;;;4994988;28;20046;-76
2021/11/21 09:09:20;;;;;;;6.25;4.78;;;;;;;;;;4995108;28;20042;-74
2021/11/21 09:11:48;;;;;;;5.93;4.75;;;;;;;;;;4994921;28;20081;-76
2021/11/21 09:14:16;;;;;;;5.38;4.40;;;;;;;;;;4995062;28;20042;-72
2021/11/21 09:16:44;;;;;;;5.13;4.30;;;;;;;;;;4995306;28;20043;-81
2021/11/21 09:19:12;;;;;;;4.55;3.13;;;;;;;;;;4993919;28;20046;-76
2021/11/21 09:21:42;;;;;;;5.32;3.05;;;;;;;;;;4995215;28;20048;-73
2021/11/21 09:24:09;;;;;;;4.78;3.40;;;;;;;;;;4993762;28;20453;-74
2021/11/21 09:26:37;;;;;;;4.28;3.30;;;;;;;;;;4993562;28;20125;-74
2021/11/21 09:29:05;;;;;;;5.70;3.45;;;;;;;;;;4994657;28;20043;-76
2021/11/21 09:31:33;;;;;;;3.47;3.13;;;;;;;;;;4993660;28;20421;-76
2021/11/21 09:34:00;;;;;;;6.32;3.38;;;;;;;;;;4994221;28;20045;-73
2021/11/21 09:36:28;;;;;;;4.38;3.15;;;;;;;;;;4994513;28;20057;-72
2021/11/21 09:38:56;;;;;;;4.88;3.80;;;;;;;;;;4995761;28;20128;-83
2021/11/21 09:41:24;;;;;;;3.58;3.05;;;;;;;;;;4996640;28;20042;-83
2021/11/21 09:43:56;;;;;;;5.55;3.40;;;;;;;;;;4977893;28;20451;-83
2021/11/21 09:46:24;;;;;;;5.35;2.97;;;;;;;;;;4979966;28;20387;-83
2021/11/21 09:48:53;;;;;;;3.03;2.70;;;;;;;;;;4997356;28;20046;-75
2021/11/21 09:51:21;;;;;;;4.40;2.90;;;;;;;;;;4994334;28;20046;-75
2021/11/21 09:53:49;;;;;;;4.47;3.00;;;;;;;;;;4992613;28;20042;-74
2021/11/21 09:56:16;;;;;;;4.13;2.90;;;;;;;;;;4995402;28;20409;-83
2021/11/21 09:58:45;;;;;;;3.33;2.85;;;;;;;;;;4995030;28;20405;-79
2021/11/21 10:01:32;;;;;;;3.75;2.78;;;;;;;;;;4996582;28;20049;-75
2021/11/21 10:04:00;;;;;;;3.28;2.50;;;;;;;;;;4994524;28;20053;-74
2021/11/21 10:06:34;;;;;;;4.82;2.83;;;;;;;;;;4996007;28;20054;-83
2021/11/21 10:09:01;;;;;;;5.82;2.60;;;;;;;;;;4993884;28;20038;-74
2021/11/21 10:11:29;;;;;;;3.50;2.72;;;;;;;;;;4992665;28;20046;-75
2021/11/21 10:14:03;;;;;;;3.83;2.45;;;;;;;;;;4997352;28;20050;-83
2021/11/21 10:16:32;;;;;;;3.42;2.65;;;;;;;;;;4996998;28;20042;-83
2021/11/21 10:19:07;;;;;;;5.78;2.63;;;;;;;;;;4997194;28;20093;-74
2021/11/21 10:21:36;;;;;;;2.60;2.40;;;;;;;;;;4976267;28;20145;-75
2021/11/21 10:24:12;;;;;;;2.30;2.10;;;;;;;;;;4993337;28;20047;-83
2021/11/21 10:26:40;;;;;;;4.75;2.63;;;;;;;;;;4996356;28;20064;-83
2021/11/21 10:29:27;;;;;;;3.35;2.88;;;;;;;;;;4976097;28;20593;-75
2021/11/21 10:31:55;;;;;;;3.72;2.45;;;;;;;;;;4993639;28;20121;-72
2021/11/21 10:34:22;;;;;;;4.13;2.65;;;;;;;;;;4993443;28;20485;-72
2021/11/21 10:36:50;;;;;;;3.35;2.70;;;;;;;;;;4995993;28;20038;-83
2021/11/21 10:39:20;;;;;;;4.15;2.92;;;;;;;;;;4978519;28;20057;-72
2021/11/21 10:41:51;;;;;;;3.83;2.58;;;;;;;;;;4992450;28;20060;-74
2021/11/21 10:44:20;;;;;;;5.55;2.40;;;;;;;;;;4993887;28;20073;-75
2021/11/21 10:46:57;;;;;;;2.60;2.40;;;;;;;;;;4992251;28;20042;-83
2021/11/21 10:49:34;;;;;;;3.47;2.13;;;;;;;;;;4998738;28;20121;-75
2021/11/21 10:52:05;;;;;;;4.68;2.60;;;;;;;;;;4992854;28;20043;-72
2021/11/21 10:54:53;;;;;;;5.07;2.33;;;;;;;;;;4976165;28;20117;-72
2021/11/21 10:57:20;;;;;;;5.25;2.10;;;;;;;;;;4994389;28;20054;-75
2021/11/21 10:59:48;;;;;;;3.28;2.40;;;;;;;;;;4995225;28;20061;-72
2021/11/21 11:02:25;;;;;;;5.53;2.50;;;;;;;;;;4998444;28;20072;-83
2021/11/21 11:05:12;;;;;;;5.25;2.95;;;;;;;;;;4992841;28;20055;-74
2021/11/21 11:08:03;;;;;;;4.55;2.75;;;;;;;;;;4998357;28;20046;-83
2021/11/21 11:10:32;;;;;;;2.78;2.30;;;;;;;;;;4993418;28;20039;-82
2021/11/21 11:13:02;;;;;;;4.07;2.25;;;;;;;;;;4993780;28;20109;-75
2021/11/21 11:15:32;;;;;;;3.13;2.67;;;;;;;;;;4989278;28;20510;-74
2021/11/21 11:17:59;;;;;;;2.60;2.28;;;;;;;;;;4991026;28;20042;-74
2021/11/21 11:20:28;;;;;;;2.50;2.30;;;;;;;;;;4991872;28;20046;-71
2021/11/21 11:22:58;;;;;;;2.60;2.40;;;;;;;;;;4994979;28;20034;-75
2021/11/21 11:25:30;;;;;;;2.53;2.22;;;;;;;;;;4992931;28;20046;-71
2021/11/21 11:28:13;;;;;;;2.40;2.20;;;;;;;;;;4994019;28;20149;-75
2021/11/21 11:30:41;;;;;;;2.40;2.20;;;;;;;;;;4992817;28;20520;-74
2021/11/21 11:33:08;;;;;;;4.85;2.78;;;;;;;;;;4979050;28;20118;-82
2021/11/21 11:35:43;;;;;;;2.30;2.10;;;;;;;;;;4995193;28;20049;-82
2021/11/21 11:38:15;;;;;;;2.38;2.17;;;;;;;;;;4994884;28;20129;-72
2021/11/21 11:40:52;;;;;;;5.38;3.15;;;;;;;;;;4975447;28;20057;-74
2021/11/21 11:43:23;;;;;;;4.75;2.95;;;;;;;;;;4993966;28;20053;-82
2021/11/21 11:45:52;;;;;;;3.47;2.55;;;;;;;;;;4992423;28;20494;-71
2021/11/21 11:48:30;;;;;;;3.15;2.40;;;;;;;;;;4993534;28;20540;-82
2021/11/21 11:51:00;;;;;;;4.72;3.00;;;;;;;;;;4994444;28;20070;-74
2021/11/21 11:53:35;;;;;;;3.10;2.75;;;;;;;;;;4995046;28;20490;-71
2021/11/21 11:56:09;;;;;;;3.25;2.70;;;;;;;;;;4996643;28;20038;-81
2021/11/21 11:58:44;;;;;;;3.25;2.90;;;;;;;;;;4997870;28;20038;-74
2021/11/21 12:01:11;;;;;;;3.13;2.70;;;;;;;;;;4999727;28;20085;-75
2021/11/21 12:03:41;;;;;;;5.47;3.30;;;;;;;;;;4997101;28;20093;-82
2021/11/21 12:06:09;;;;;;;5.82;2.97;;;;;;;;;;4996361;28;20048;-74
2021/11/21 12:08:42;;;;;;;4.05;3.10;;;;;;;;;;4997065;28;20462;-82
2021/11/21 12:11:10;;;;;;;3.70;2.97;;;;;;;;;;4996141;28;20121;-72
2021/11/21 12:13:44;;;;;;;3.17;2.88;;;;;;;;;;4980085;28;20130;-72
2021/11/21 12:16:16;;;;;;;3.30;3.00;;;;;;;;;;4980460;28;20057;-82
2021/11/21 12:18:55;;;;;;;4.03;3.15;;;;;;;;;;4994911;28;20482;-72
2021/11/21 12:21:39;;;;;;;3.85;2.90;;;;;;;;;;4997612;28;20486;-82
2021/11/21 12:24:09;;;;;;;4.22;3.10;;;;;;;;;;4997608;28;20077;-74
2021/11/21 12:26:43;;;;;;;5.18;3.65;;;;;;;;;;4995681;28;20074;-74
2021/11/21 12:29:33;;;;;;;3.97;2.97;;;;;;;;;;4995613;28;20039;-75
2021/11/21 12:32:20;;;;;;;5.57;3.45;;;;;;;;;;4997834;28;20038;-81
2021/11/21 12:34:49;;;;;;;3.10;2.63;;;;;;;;;;4995174;28;20046;-81
2021/11/21 12:37:26;;;;;;;4.05;2.72;;;;;;;;;;4996698;28;20129;-74
2021/11/21 12:39:58;;;;;;;5.80;2.75;;;;;;;;;;4994133;28;20125;-74
2021/11/21 12:42:29;;;;;;;3.88;3.47;;;;;;;;;;4995560;28;20046;-72
2021/11/21 12:45:16;;;;;;;3.00;2.72;;;;;;;;;;4995460;28;20078;-72
2021/11/21 12:47:45;;;;;;;4.32;3.00;;;;;;;;;;4994850;28;20125;-71
2021/11/21 12:50:26;;;;;;;3.38;2.65;;;;;;;;;;4995260;28;20038;-71
2021/11/21 12:53:24;;;;;;;3.60;2.50;;;;;;;;;;4977625;28;20047;-71
2021/11/21 12:55:57;;;;;;;2.60;2.40;;;;;;;;;;4962222;28;20046;-81
2021/11/21 12:58:25;;;;;;;3.42;2.97;;;;;;;;;;4995768;28;20042;-74
2021/11/21 13:00:54;;;;;;;4.18;2.60;;;;;;;;;;4994970;28;20042;-73
2021/11/21 13:03:23;;;;;;;4.60;3.00;;;;;;;;;;4993302;28;20061;-73
2021/11/21 13:05:53;;;;;;;7.38;2.67;;;;;;;;;;4993910;28;20042;-73
2021/11/21 13:08:23;;;;;;;3.10;2.80;;;;;;;;;;4994991;28;20564;-71
2021/11/21 13:10:56;;;;;;;6.57;2.65;;;;;;;;;;4993664;28;20081;-71
2021/11/21 13:13:23;;;;;;;;;;;;;;;;;;4993991;28;20413;-74
2021/11/21 13:15:52;;;;;;;5.35;2.60;;;;;;;;;;4993656;28;20009;-81
2021/11/21 13:18:21;;;;;;;2.90;2.60;;;;;;;;;;4994688;28;20042;-81
2021/11/21 13:20:52;;;;;;;4.60;2.75;;;;;;;;;;4994840;28;20125;-81
2021/11/21 13:23:29;;;;;;;4.25;3.17;;;;;;;;;;4994878;28;20118;-71
2021/11/21 13:25:58;;;;;;;3.67;2.55;;;;;;;;;;4993815;28;20557;-81
2021/11/21 13:28:37;;;;;;;4.20;2.70;;;;;;;;;;4994924;28;20109;-74
2021/11/21 13:31:13;;;;;;;4.28;2.53;;;;;;;;;;4993511;28;20042;-71
2021/11/21 13:33:45;;;;;;;3.13;2.40;;;;;;;;;;4994544;28;20039;-75
2021/11/21 13:36:20;;;;;;;5.78;2.83;;;;;;;;;;4994243;28;20046;-81
2021/11/21 13:38:51;;;;;;;6.00;3.53;;;;;;;;;;4993318;28;20042;-81
2021/11/21 13:41:21;;;;;;;3.88;3.08;;;;;;;;;;4994349;28;20046;-74
2021/11/21 13:43:51;;;;;;;4.68;2.90;;;;;;;;;;4994456;28;20050;-73
2021/11/21 13:46:35;;;;;;;3.63;2.60;;;;;;;;;;4994476;28;20057;-81
2021/11/21 13:49:20;;;;;;;4.18;2.90;;;;;;;;;;4993002;28;20058;-74
2021/11/21 13:51:57;;;;;;;6.63;3.10;;;;;;;;;;4992825;28;20478;-74
2021/11/21 13:54:28;;;;;;;4.70;3.10;;;;;;;;;;4992599;28;20511;-74
2021/11/21 13:56:56;;;;;;;6.65;3.13;;;;;;;;;;4994093;28;20039;-74
2021/11/21 13:59:23;;;;;;;5.32;3.47;;;;;;;;;;4993247;28;20042;-74
2021/11/21 14:01:55;;;;;;;3.70;2.70;;;;;;;;;;4994211;28;20042;-80
2021/11/21 14:04:33;;;;;;;3.58;2.95;;;;;;;;;;4993979;28;20045;-80
2021/11/21 14:07:11;;;;;;;4.97;3.20;;;;;;;;;;4993900;28;20064;-71
2021/11/21 14:09:57;;;;;;;5.30;3.00;;;;;;;;;;4992156;28;20039;-74
2021/11/21 14:12:34;;;;;;;4.43;3.00;;;;;;;;;;4991823;28;20573;-71
2021/11/21 14:15:11;;;;;;;3.42;2.80;;;;;;;;;;4975275;28;20145;-74
2021/11/21 14:17:42;;;;;;;4.50;3.13;;;;;;;;;;4993927;28;20081;-74
2021/11/21 14:20:27;;;;;;;5.35;3.30;;;;;;;;;;4992370;28;20042;-73
2021/11/21 14:23:02;;;;;;;3.08;2.72;;;;;;;;;;4993224;28;20132;-71
2021/11/21 14:25:30;;;;;;;3.88;2.60;;;;;;;;;;4991920;28;20417;-73
2021/11/21 14:28:02;;;;;;;4.95;2.83;;;;;;;;;;4992106;28;20038;-73
2021/11/21 14:30:30;;;;;;;4.38;3.13;;;;;;;;;;4993122;28;20048;-71
2021/11/21 14:33:13;;;;;;;4.93;2.90;;;;;;;;;;4993158;28;20042;-71
2021/11/21 14:35:45;;;;;;;2.95;2.72;;;;;;;;;;4993104;28;20041;-71
2021/11/21 14:38:13;;;;;;;4.07;2.80;;;;;;;;;;4992059;28;20065;-74
2021/11/21 14:40:43;;;;;;;3.15;2.85;;;;;;;;;;4992237;28;20042;-73
2021/11/21 14:43:11;;;;;;;3.10;2.80;;;;;;;;;;4993085;28;20126;-71
2021/11/21 14:45:38;;;;;;;4.50;3.00;;;;;;;;;;4975695;28;20050;-71
2021/11/21 14:48:06;;;;;;;3.75;2.85;;;;;;;;;;4993232;28;20047;-73
2021/11/21 14:50:35;;;;;;;12.02;3.35;;;;;;;;;;4992955;28;20038;-74
2021/11/21 14:53:03;;;;;;;3.33;3.03;;;;;;;;;;4975455;28;20042;-71
2021/11/21 14:55:37;;;;;;;5.03;3.17;;;;;;;;;;4975794;28;20409;-80
2021/11/21 14:58:11;;;;;;;4.00;3.20;;;;;;;;;;4992912;28;20117;-80